Time;durP1;ratioP1;P1;durP2;ratioP2;P2;SDS_P1;SDS_P2;PMS_P1;PMS_P2;Temp;Humidity;BMP_temperature;BMP_pressure;BME280_temperature;BME280_humidity;BME280_pressure;Samples;Min_cycle;Max_cycle;Signal;HPM_P1;HPM_P2
2022/10/22 00:00:34;;;;;;;1.00;1.00;;;;;;;;;;5105480;28;20456;-81
2022/10/22 00:03:00;;;;;;;0.63;0.63;;;;;;;;;;5091794;28;20475;-81
2022/10/22 00:05:27;;;;;;;0.80;0.80;;;;;;;;;;5098260;28;20449;-81
2022/10/22 00:07:55;;;;;;;0.70;0.70;;;;;;;;;;5104168;28;20449;-81
2022/10/22 00:10:22;;;;;;;0.60;0.60;;;;;;;;;;5110877;28;20788;-81
2022/10/22 00:12:49;;;;;;;0.60;0.60;;;;;;;;;;5101431;28;20996;-80
2022/10/22 00:15:16;;;;;;;0.70;0.70;;;;;;;;;;5085994;28;20457;-80
2022/10/22 00:17:43;;;;;;;0.67;0.67;;;;;;;;;;5108908;28;20918;-80
2022/10/22 00:20:10;;;;;;;0.80;0.80;;;;;;;;;;5109272;28;20529;-81
2022/10/22 00:22:37;;;;;;;0.70;0.70;;;;;;;;;;5106005;28;20459;-81
2022/10/22 00:25:05;;;;;;;1.37;1.27;;;;;;;;;;5085558;28;20445;-80
2022/10/22 00:27:32;;;;;;;0.60;0.60;;;;;;;;;;5100374;28;20479;-80
2022/10/22 00:29:59;;;;;;;0.60;0.60;;;;;;;;;;5104690;28;20434;-80
2022/10/22 00:32:25;;;;;;;0.80;0.80;;;;;;;;;;5109632;28;20469;-80
2022/10/22 00:34:52;;;;;;;0.60;0.60;;;;;;;;;;5100389;28;20953;-80
2022/10/22 00:37:19;;;;;;;0.70;0.70;;;;;;;;;;5113825;28;20469;-80
2022/10/22 00:39:45;;;;;;;0.63;0.60;;;;;;;;;;5100782;28;20471;-80
2022/10/22 00:42:16;;;;;;;0.60;0.60;;;;;;;;;;5099553;28;20521;-80
2022/10/22 00:45:02;;;;;;;0.93;0.90;;;;;;;;;;5106510;28;20432;-80
2022/10/22 00:47:31;;;;;;;0.60;0.60;;;;;;;;;;5111479;28;20449;-80
2022/10/22 00:49:58;;;;;;;0.60;0.60;;;;;;;;;;5105970;28;20448;-81
2022/10/22 00:52:25;;;;;;;0.70;0.70;;;;;;;;;;5090831;28;20487;-80
2022/10/22 00:54:53;;;;;;;0.60;0.60;;;;;;;;;;5099117;28;20628;-80
2022/10/22 00:57:21;;;;;;;0.70;0.70;;;;;;;;;;5099603;28;21015;-80
2022/10/22 00:59:49;;;;;;;2.00;1.43;;;;;;;;;;5103640;28;20437;-80
2022/10/22 01:02:16;;;;;;;0.73;0.73;;;;;;;;;;5094233;28;20456;-80
2022/10/22 01:04:43;;;;;;;0.70;0.70;;;;;;;;;;5103053;28;20446;-80
2022/10/22 01:07:14;;;;;;;0.70;0.70;;;;;;;;;;5107137;28;20465;-80
2022/10/22 01:09:43;;;;;;;1.67;1.57;;;;;;;;;;5100122;28;20442;-79
2022/10/22 01:12:13;;;;;;;0.70;0.70;;;;;;;;;;5084391;28;20466;-79
2022/10/22 01:14:57;;;;;;;0.60;0.60;;;;;;;;;;5105012;28;20468;-80
2022/10/22 01:17:31;;;;;;;0.60;0.60;;;;;;;;;;5102562;28;20818;-79
2022/10/22 01:20:21;;;;;;;0.70;0.70;;;;;;;;;;5113304;28;20462;-79
2022/10/22 01:22:58;;;;;;;0.77;0.77;;;;;;;;;;5088395;28;20878;-79
2022/10/22 01:25:30;;;;;;;0.60;0.60;;;;;;;;;;5109029;27;20939;-80
2022/10/22 01:28:01;;;;;;;0.60;0.60;;;;;;;;;;5104134;28;20772;-80
2022/10/22 01:30:30;;;;;;;0.60;0.60;;;;;;;;;;5093959;28;20474;-79
2022/10/22 01:32:58;;;;;;;0.70;0.70;;;;;;;;;;5091202;28;20509;-80
2022/10/22 01:35:26;;;;;;;0.63;0.63;;;;;;;;;;5107387;28;20563;-79
2022/10/22 01:37:55;;;;;;;0.60;0.60;;;;;;;;;;5102188;28;20432;-80
2022/10/22 01:40:21;;;;;;;0.80;0.80;;;;;;;;;;5101279;28;20521;-79
2022/10/22 01:42:56;;;;;;;0.60;0.60;;;;;;;;;;5102648;28;20437;-79
2022/10/22 01:45:23;;;;;;;0.93;0.93;;;;;;;;;;5101171;28;20447;-79
2022/10/22 01:47:55;;;;;;;0.60;0.60;;;;;;;;;;5094371;28;20864;-80
2022/10/22 01:50:25;;;;;;;0.90;0.90;;;;;;;;;;5093626;28;20434;-80
2022/10/22 01:52:57;;;;;;;0.70;0.70;;;;;;;;;;5103186;28;20487;-79
2022/10/22 01:55:27;;;;;;;0.73;0.73;;;;;;;;;;5091343;28;20449;-79
2022/10/22 01:58:00;;;;;;;1.03;0.97;;;;;;;;;;5093878;28;20461;-80
2022/10/22 02:00:27;;;;;;;6.00;3.23;;;;;;;;;;5080966;28;20443;-79
2022/10/22 02:02:59;;;;;;;0.60;0.60;;;;;;;;;;5091084;28;20467;-79
2022/10/22 02:05:29;;;;;;;0.60;0.60;;;;;;;;;;5099216;28;20464;-79
2022/10/22 02:07:58;;;;;;;0.80;0.80;;;;;;;;;;5091117;28;20540;-79
2022/10/22 02:10:25;;;;;;;0.60;0.60;;;;;;;;;;5105082;28;20547;-79
2022/10/22 02:12:53;;;;;;;0.60;0.60;;;;;;;;;;5105465;28;21421;-79
2022/10/22 02:15:22;;;;;;;0.60;0.60;;;;;;;;;;5101844;28;20483;-80
2022/10/22 02:17:49;;;;;;;0.60;0.60;;;;;;;;;;5090362;28;20456;-80
2022/10/22 02:20:18;;;;;;;0.60;0.60;;;;;;;;;;5096862;28;20853;-80
2022/10/22 02:22:45;;;;;;;0.97;0.97;;;;;;;;;;5106136;28;20853;-79
2022/10/22 02:25:13;;;;;;;0.60;0.60;;;;;;;;;;5100219;28;20481;-80
2022/10/22 02:27:42;;;;;;;1.37;1.17;;;;;;;;;;5104223;28;20451;-80
2022/10/22 02:30:10;;;;;;;1.00;1.00;;;;;;;;;;5101870;28;20950;-80
2022/10/22 02:32:39;;;;;;;0.60;0.60;;;;;;;;;;5103144;28;20492;-80
2022/10/22 02:35:07;;;;;;;0.60;0.60;;;;;;;;;;5106476;28;20473;-80
2022/10/22 02:37:35;;;;;;;0.60;0.60;;;;;;;;;;5091509;28;20449;-80
2022/10/22 02:40:02;;;;;;;0.60;0.60;;;;;;;;;;5105394;28;20446;-80
2022/10/22 02:42:30;;;;;;;0.87;0.87;;;;;;;;;;5112943;28;20444;-80
2022/10/22 02:44:56;;;;;;;0.70;0.70;;;;;;;;;;5100001;28;20437;-79
2022/10/22 02:47:23;;;;;;;0.67;0.67;;;;;;;;;;5107649;28;20452;-80
2022/10/22 02:49:50;;;;;;;0.60;0.60;;;;;;;;;;5105854;28;20954;-79
2022/10/22 02:52:17;;;;;;;0.60;0.60;;;;;;;;;;5102531;28;20512;-80
2022/10/22 02:54:45;;;;;;;0.60;0.60;;;;;;;;;;5095403;28;20539;-80
2022/10/22 02:57:12;;;;;;;1.50;1.40;;;;;;;;;;5084585;28;20488;-79
2022/10/22 02:59:40;;;;;;;0.90;0.90;;;;;;;;;;5105429;28;21006;-80
2022/10/22 03:02:10;;;;;;;0.60;0.60;;;;;;;;;;5101117;28;20428;-77
2022/10/22 03:04:41;;;;;;;0.60;0.60;;;;;;;;;;5104020;28;20473;-80
2022/10/22 03:07:09;;;;;;;0.60;0.60;;;;;;;;;;5101609;28;20475;-80
2022/10/22 03:09:39;;;;;;;0.70;0.70;;;;;;;;;;5110074;28;20465;-80
2022/10/22 03:12:12;;;;;;;0.60;0.60;;;;;;;;;;5112358;28;20471;-80
2022/10/22 03:14:41;;;;;;;0.70;0.70;;;;;;;;;;5097142;28;20445;-80
2022/10/22 03:17:10;;;;;;;0.63;0.63;;;;;;;;;;5083573;28;20541;-80
2022/10/22 03:19:38;;;;;;;0.60;0.60;;;;;;;;;;5090099;28;20953;-80
2022/10/22 03:22:09;;;;;;;0.70;0.70;;;;;;;;;;5111473;28;20471;-81
2022/10/22 03:24:39;;;;;;;0.67;0.67;;;;;;;;;;5110013;28;20462;-80
2022/10/22 03:27:15;;;;;;;0.70;0.70;;;;;;;;;;5108483;28;20995;-81
2022/10/22 03:29:50;;;;;;;0.80;0.80;;;;;;;;;;5096846;28;20537;-81
2022/10/22 03:32:21;;;;;;;0.60;0.60;;;;;;;;;;5090326;28;20477;-80
2022/10/22 03:34:50;;;;;;;0.70;0.70;;;;;;;;;;5103873;28;20461;-80
2022/10/22 03:37:18;;;;;;;0.70;0.70;;;;;;;;;;5102580;28;20457;-80
2022/10/22 03:39:45;;;;;;;1.47;1.37;;;;;;;;;;5103999;28;20528;-81
2022/10/22 03:42:15;;;;;;;0.60;0.60;;;;;;;;;;5094009;28;20454;-79
2022/10/22 03:44:42;;;;;;;0.60;0.60;;;;;;;;;;5092196;28;20810;-81
2022/10/22 03:47:09;;;;;;;0.60;0.60;;;;;;;;;;5103877;28;20485;-80
2022/10/22 03:49:36;;;;;;;0.60;0.60;;;;;;;;;;5099228;28;20445;-81
2022/10/22 03:52:07;;;;;;;0.60;0.60;;;;;;;;;;5084144;28;20849;-81
2022/10/22 03:54:35;;;;;;;0.60;0.60;;;;;;;;;;5102097;28;20828;-80
2022/10/22 03:57:05;;;;;;;0.80;0.80;;;;;;;;;;5094939;28;20477;-79
2022/10/22 03:59:35;;;;;;;0.60;0.60;;;;;;;;;;5095668;28;20533;-80
2022/10/22 04:02:03;;;;;;;0.60;0.60;;;;;;;;;;5095208;28;20444;-79
2022/10/22 04:04:29;;;;;;;0.80;0.80;;;;;;;;;;5093063;28;20877;-79
2022/10/22 04:06:56;;;;;;;2.07;1.20;;;;;;;;;;5105758;28;20486;-79
2022/10/22 04:09:23;;;;;;;2.47;2.33;;;;;;;;;;5114531;28;20431;-79
2022/10/22 04:11:49;;;;;;;0.90;0.90;;;;;;;;;;5104176;28;20441;-79
2022/10/22 04:14:18;;;;;;;0.70;0.70;;;;;;;;;;5080780;28;20485;-80
2022/10/22 04:16:49;;;;;;;0.70;0.70;;;;;;;;;;5081252;28;20460;-80
2022/10/22 04:19:15;;;;;;;0.70;0.70;;;;;;;;;;5090538;28;20955;-81
2022/10/22 04:21:42;;;;;;;0.60;0.60;;;;;;;;;;5105013;27;20564;-80
2022/10/22 04:24:09;;;;;;;0.60;0.60;;;;;;;;;;5104598;28;20979;-80
2022/10/22 04:26:36;;;;;;;0.60;0.60;;;;;;;;;;5109473;28;20451;-80
2022/10/22 04:29:03;;;;;;;0.80;0.80;;;;;;;;;;5085456;28;20449;-80
2022/10/22 04:31:29;;;;;;;0.70;0.70;;;;;;;;;;5098609;28;20476;-80
2022/10/22 04:33:58;;;;;;;0.60;0.60;;;;;;;;;;5079737;28;20890;-80
2022/10/22 04:36:25;;;;;;;0.60;0.60;;;;;;;;;;5101741;28;20480;-80
2022/10/22 04:38:53;;;;;;;0.70;0.70;;;;;;;;;;5085920;28;20489;-80
2022/10/22 04:41:22;;;;;;;0.93;0.83;;;;;;;;;;5093661;28;20519;-79
2022/10/22 04:43:48;;;;;;;0.60;0.60;;;;;;;;;;5094693;28;20430;-78
2022/10/22 04:46:16;;;;;;;0.70;0.70;;;;;;;;;;5103024;28;20445;-79
2022/10/22 04:48:43;;;;;;;0.60;0.60;;;;;;;;;;5099294;28;20433;-80
2022/10/22 04:51:12;;;;;;;0.70;0.70;;;;;;;;;;5105094;28;20467;-81
2022/10/22 04:53:39;;;;;;;0.60;0.60;;;;;;;;;;5106689;28;20445;-80
2022/10/22 04:56:07;;;;;;;3.97;0.97;;;;;;;;;;5106341;28;20460;-80
2022/10/22 04:58:34;;;;;;;0.60;0.60;;;;;;;;;;5097626;28;20460;-80
2022/10/22 05:01:07;;;;;;;0.60;0.60;;;;;;;;;;5079498;28;20455;-80
2022/10/22 05:03:34;;;;;;;0.60;0.60;;;;;;;;;;5100474;28;20548;-80
2022/10/22 05:06:01;;;;;;;0.60;0.60;;;;;;;;;;5085660;28;21067;-80
2022/10/22 05:08:29;;;;;;;0.60;0.60;;;;;;;;;;5096800;28;20440;-80
2022/10/22 05:10:56;;;;;;;0.60;0.60;;;;;;;;;;5098088;28;20444;-80
2022/10/22 05:13:22;;;;;;;0.80;0.80;;;;;;;;;;5100521;28;20468;-80
2022/10/22 05:15:50;;;;;;;0.60;0.60;;;;;;;;;;5103646;28;20483;-80
2022/10/22 05:18:17;;;;;;;0.60;0.60;;;;;;;;;;5102299;28;20961;-81
2022/10/22 05:20:48;;;;;;;1.00;0.87;;;;;;;;;;5104343;28;20467;-79
2022/10/22 05:23:15;;;;;;;0.60;0.60;;;;;;;;;;5100687;28;20437;-80
2022/10/22 05:25:43;;;;;;;0.70;0.70;;;;;;;;;;5103801;28;20433;-79
2022/10/22 05:28:10;;;;;;;2.30;2.20;;;;;;;;;;5094038;28;20463;-79
2022/10/22 05:30:37;;;;;;;0.60;0.60;;;;;;;;;;5097322;28;20993;-80
2022/10/22 05:33:03;;;;;;;0.60;0.60;;;;;;;;;;5109139;28;20971;-79
2022/10/22 05:35:30;;;;;;;0.70;0.70;;;;;;;;;;5107704;28;20511;-79
2022/10/22 05:37:57;;;;;;;0.60;0.60;;;;;;;;;;5106447;28;20464;-79
2022/10/22 05:40:25;;;;;;;1.10;1.00;;;;;;;;;;5100227;28;20793;-79
2022/10/22 05:42:59;;;;;;;0.67;0.67;;;;;;;;;;5109334;28;20477;-79
2022/10/22 05:45:25;;;;;;;0.60;0.60;;;;;;;;;;5097995;28;20445;-79
2022/10/22 05:47:52;;;;;;;2.73;1.03;;;;;;;;;;5087506;28;20439;-78
2022/10/22 05:50:19;;;;;;;1.77;0.80;;;;;;;;;;5112970;28;20969;-78
2022/10/22 05:52:46;;;;;;;0.60;0.60;;;;;;;;;;5105091;28;20456;-80
2022/10/22 05:55:14;;;;;;;0.60;0.60;;;;;;;;;;5087461;28;20447;-77
2022/10/22 05:57:41;;;;;;;1.10;1.10;;;;;;;;;;5109481;28;20444;-80
2022/10/22 06:00:10;;;;;;;0.60;0.60;;;;;;;;;;5084489;28;20440;-80
2022/10/22 06:02:42;;;;;;;0.90;0.90;;;;;;;;;;5094581;28;20584;-80
2022/10/22 06:05:08;;;;;;;0.60;0.60;;;;;;;;;;5105566;28;20522;-80
2022/10/22 06:07:36;;;;;;;0.93;0.93;;;;;;;;;;5102202;28;20437;-80
2022/10/22 06:10:03;;;;;;;0.90;0.90;;;;;;;;;;5101868;28;20478;-80
2022/10/22 06:12:30;;;;;;;0.67;0.67;;;;;;;;;;5105253;28;20543;-79
2022/10/22 06:14:56;;;;;;;0.60;0.60;;;;;;;;;;5093840;28;20837;-80
2022/10/22 06:17:26;;;;;;;0.80;0.80;;;;;;;;;;5103401;28;20813;-79
2022/10/22 06:19:52;;;;;;;0.97;0.97;;;;;;;;;;5110274;28;20473;-79
2022/10/22 06:22:19;;;;;;;0.80;0.80;;;;;;;;;;5099630;28;20492;-80
2022/10/22 06:24:46;;;;;;;1.27;1.07;;;;;;;;;;5100291;28;20451;-80
2022/10/22 06:27:13;;;;;;;0.60;0.60;;;;;;;;;;5099018;28;20449;-80
2022/10/22 06:29:40;;;;;;;0.60;0.60;;;;;;;;;;5103425;28;20440;-80
2022/10/22 06:32:06;;;;;;;1.10;1.00;;;;;;;;;;5106301;28;20456;-80
2022/10/22 06:34:34;;;;;;;0.60;0.57;;;;;;;;;;5104967;28;20487;-80
2022/10/22 06:37:01;;;;;;;0.60;0.60;;;;;;;;;;5102333;28;20461;-79
2022/10/22 06:39:28;;;;;;;0.60;0.60;;;;;;;;;;5097598;28;20447;-79
2022/10/22 06:41:56;;;;;;;0.60;0.60;;;;;;;;;;5097042;28;20443;-79
2022/10/22 06:44:22;;;;;;;0.70;0.70;;;;;;;;;;5079470;28;20461;-80
2022/10/22 06:46:50;;;;;;;1.33;1.23;;;;;;;;;;5104612;28;20440;-80
2022/10/22 06:49:18;;;;;;;0.60;0.60;;;;;;;;;;5094211;28;20466;-80
2022/10/22 06:51:48;;;;;;;0.60;0.60;;;;;;;;;;5103951;28;20997;-80
2022/10/22 06:54:14;;;;;;;1.37;1.27;;;;;;;;;;5104068;28;20462;-79
2022/10/22 06:56:43;;;;;;;0.60;0.60;;;;;;;;;;5097477;28;20429;-78
2022/10/22 06:59:11;;;;;;;0.60;0.60;;;;;;;;;;5101938;28;20497;-79
2022/10/22 07:01:38;;;;;;;0.60;0.60;;;;;;;;;;5086828;28;20448;-79
2022/10/22 07:04:05;;;;;;;0.60;0.60;;;;;;;;;;5101914;28;20496;-80
2022/10/22 07:06:32;;;;;;;0.63;0.63;;;;;;;;;;5104077;28;20457;-79
2022/10/22 07:09:00;;;;;;;1.20;1.10;;;;;;;;;;5101201;28;20443;-80
2022/10/22 07:11:28;;;;;;;0.60;0.60;;;;;;;;;;5111864;28;20499;-79
2022/10/22 07:13:56;;;;;;;0.70;0.70;;;;;;;;;;5112559;28;20466;-79
2022/10/22 07:16:24;;;;;;;0.70;0.70;;;;;;;;;;5113068;28;20441;-78
2022/10/22 07:18:57;;;;;;;0.80;0.80;;;;;;;;;;5099700;28;20468;-79
2022/10/22 07:21:25;;;;;;;0.60;0.60;;;;;;;;;;5086739;28;20835;-79
2022/10/22 07:23:51;;;;;;;0.80;0.80;;;;;;;;;;5086674;28;20444;-79
2022/10/22 07:26:19;;;;;;;0.60;0.60;;;;;;;;;;5085096;28;20501;-79
2022/10/22 07:28:54;;;;;;;0.60;0.60;;;;;;;;;;5103471;28;20469;-78
2022/10/22 07:31:22;;;;;;;0.87;0.87;;;;;;;;;;5095200;28;20954;-79
2022/10/22 07:33:48;;;;;;;0.60;0.60;;;;;;;;;;5086649;28;20584;-79
2022/10/22 07:36:18;;;;;;;0.60;0.60;;;;;;;;;;5085747;28;20503;-79
2022/10/22 07:38:45;;;;;;;0.70;0.70;;;;;;;;;;5086612;28;20463;-79
2022/10/22 07:41:12;;;;;;;0.90;0.90;;;;;;;;;;5094884;28;20447;-79
2022/10/22 07:43:40;;;;;;;0.60;0.60;;;;;;;;;;5097628;28;20828;-78
2022/10/22 07:46:07;;;;;;;0.67;0.67;;;;;;;;;;5091631;28;20457;-78
2022/10/22 07:48:35;;;;;;;0.60;0.60;;;;;;;;;;5108736;28;20437;-79
2022/10/22 07:51:03;;;;;;;0.60;0.60;;;;;;;;;;5108880;28;20944;-81
2022/10/22 07:53:30;;;;;;;0.60;0.60;;;;;;;;;;5109463;28;20442;-80
2022/10/22 07:55:57;;;;;;;0.60;0.60;;;;;;;;;;5103982;28;20464;-78
2022/10/22 07:58:24;;;;;;;0.60;0.60;;;;;;;;;;5104878;28;20432;-80
2022/10/22 08:00:55;;;;;;;0.70;0.70;;;;;;;;;;5103524;28;20440;-80
2022/10/22 08:03:22;;;;;;;0.70;0.70;;;;;;;;;;5103875;28;20456;-78
2022/10/22 08:05:50;;;;;;;0.60;0.60;;;;;;;;;;5106119;28;20473;-79
2022/10/22 08:08:17;;;;;;;1.50;1.23;;;;;;;;;;5111020;28;20464;-80
2022/10/22 08:10:44;;;;;;;0.70;0.70;;;;;;;;;;5101298;28;20525;-80
2022/10/22 08:13:11;;;;;;;0.70;0.70;;;;;;;;;;5108939;28;20437;-79
2022/10/22 08:15:38;;;;;;;0.60;0.60;;;;;;;;;;5109204;28;20461;-80
2022/10/22 08:18:06;;;;;;;0.70;0.60;;;;;;;;;;5112706;28;20822;-79
2022/10/22 08:20:33;;;;;;;0.70;0.70;;;;;;;;;;5112757;28;20478;-78
2022/10/22 08:23:00;;;;;;;2.30;1.30;;;;;;;;;;5109288;28;20507;-80
2022/10/22 08:25:27;;;;;;;0.60;0.60;;;;;;;;;;5113893;28;20439;-78
2022/10/22 08:27:54;;;;;;;0.80;0.80;;;;;;;;;;5091002;28;20437;-78
2022/10/22 08:30:20;;;;;;;0.70;0.70;;;;;;;;;;5092912;28;20520;-76
2022/10/22 08:32:48;;;;;;;1.97;1.33;;;;;;;;;;5120933;27;20438;-79
2022/10/22 08:35:25;;;;;;;0.70;0.70;;;;;;;;;;5091139;28;20488;-78
2022/10/22 08:37:52;;;;;;;0.80;0.80;;;;;;;;;;5098608;28;20441;-79
2022/10/22 08:40:22;;;;;;;0.60;0.60;;;;;;;;;;5094182;28;20447;-79
2022/10/22 08:43:03;;;;;;;2.30;1.07;;;;;;;;;;5114696;28;20453;-79
2022/10/22 08:45:33;;;;;;;0.63;0.63;;;;;;;;;;5109585;28;20533;-79
2022/10/22 08:48:07;;;;;;;0.70;0.70;;;;;;;;;;5090921;28;20528;-78
2022/10/22 08:50:37;;;;;;;0.60;0.60;;;;;;;;;;5117622;28;20504;-79
2022/10/22 08:53:06;;;;;;;0.70;0.70;;;;;;;;;;5104410;28;20490;-79
2022/10/22 08:55:34;;;;;;;0.60;0.60;;;;;;;;;;5087289;28;21048;-79
2022/10/22 08:58:07;;;;;;;0.83;0.83;;;;;;;;;;5110330;27;20552;-79
2022/10/22 09:00:35;;;;;;;0.60;0.60;;;;;;;;;;5099776;28;20455;-78
2022/10/22 09:03:11;;;;;;;0.60;0.60;;;;;;;;;;5096739;28;20450;-79
2022/10/22 09:05:42;;;;;;;0.70;0.60;;;;;;;;;;5101870;28;20468;-79
2022/10/22 09:08:09;;;;;;;0.70;0.60;;;;;;;;;;5110912;28;20467;-79
2022/10/22 09:10:37;;;;;;;0.70;0.70;;;;;;;;;;5095930;28;20452;-79
2022/10/22 09:13:04;;;;;;;0.70;0.60;;;;;;;;;;5104488;28;20461;-80
2022/10/22 09:15:31;;;;;;;0.60;0.60;;;;;;;;;;5108306;28;20458;-80
2022/10/22 09:18:01;;;;;;;0.70;0.60;;;;;;;;;;5103252;28;20452;-80
2022/10/22 09:20:32;;;;;;;0.70;0.70;;;;;;;;;;5101811;28;20539;-80
2022/10/22 09:23:05;;;;;;;0.67;0.60;;;;;;;;;;5108165;28;20817;-79
2022/10/22 09:25:35;;;;;;;0.70;0.70;;;;;;;;;;5125194;27;20434;-80
2022/10/22 09:28:02;;;;;;;0.70;0.70;;;;;;;;;;5104032;28;20420;-80
2022/10/22 09:30:29;;;;;;;0.70;0.67;;;;;;;;;;5099489;28;20441;-79
2022/10/22 09:32:59;;;;;;;0.70;0.60;;;;;;;;;;5099127;28;20420;-79
2022/10/22 09:35:26;;;;;;;0.70;0.70;;;;;;;;;;5094595;28;20460;-77
2022/10/22 09:37:54;;;;;;;0.70;0.67;;;;;;;;;;5107810;28;20446;-77
2022/10/22 09:40:22;;;;;;;1.17;0.80;;;;;;;;;;5101568;28;20441;-76
2022/10/22 09:42:49;;;;;;;0.70;0.60;;;;;;;;;;5099645;28;20449;-75
2022/10/22 09:45:18;;;;;;;0.70;0.60;;;;;;;;;;5104304;28;20892;-78
2022/10/22 09:47:45;;;;;;;0.90;0.83;;;;;;;;;;5100219;28;20427;-78
2022/10/22 09:50:35;;;;;;;0.70;0.60;;;;;;;;;;5104545;28;20888;-77
2022/10/22 09:53:04;;;;;;;1.63;1.00;;;;;;;;;;5105364;28;20456;-77
2022/10/22 09:55:37;;;;;;;1.53;1.00;;;;;;;;;;5108441;28;21002;-75
2022/10/22 09:58:03;;;;;;;0.70;0.70;;;;;;;;;;5100115;28;20444;-77
2022/10/22 10:00:30;;;;;;;0.70;0.60;;;;;;;;;;5095045;28;20863;-77
2022/10/22 10:02:59;;;;;;;0.70;0.60;;;;;;;;;;5106136;28;20524;-78
2022/10/22 10:05:26;;;;;;;0.70;0.60;;;;;;;;;;5103606;28;20823;-79
2022/10/22 10:07:53;;;;;;;0.80;0.80;;;;;;;;;;5092417;28;20423;-78
2022/10/22 10:10:25;;;;;;;0.70;0.60;;;;;;;;;;5110243;28;20459;-79
2022/10/22 10:12:55;;;;;;;0.80;0.80;;;;;;;;;;5094249;28;20449;-80
2022/10/22 10:15:25;;;;;;;0.70;0.60;;;;;;;;;;5112212;28;20461;-79
2022/10/22 10:17:59;;;;;;;0.70;0.70;;;;;;;;;;5093284;28;20442;-79
2022/10/22 10:20:32;;;;;;;0.70;0.60;;;;;;;;;;5087777;28;20458;-79
2022/10/22 10:23:02;;;;;;;0.70;0.70;;;;;;;;;;5110055;28;20503;-79
2022/10/22 10:25:34;;;;;;;0.70;0.70;;;;;;;;;;5108015;28;20449;-79
2022/10/22 10:28:11;;;;;;;0.70;0.70;;;;;;;;;;5093238;28;20474;-80
2022/10/22 10:30:43;;;;;;;0.70;0.60;;;;;;;;;;5120215;28;20452;-78
2022/10/22 10:33:14;;;;;;;0.70;0.60;;;;;;;;;;5106301;28;20444;-79
2022/10/22 10:35:44;;;;;;;0.70;0.70;;;;;;;;;;5105562;28;20473;-80
2022/10/22 10:38:19;;;;;;;0.70;0.70;;;;;;;;;;5105341;28;20417;-79
2022/10/22 10:40:54;;;;;;;0.70;0.70;;;;;;;;;;5098954;28;20441;-79
2022/10/22 10:43:28;;;;;;;0.70;0.60;;;;;;;;;;5100540;28;20467;-79
2022/10/22 10:45:59;;;;;;;0.70;0.70;;;;;;;;;;5109224;28;20477;-78
2022/10/22 10:48:37;;;;;;;0.70;0.60;;;;;;;;;;5067806;28;20479;-78
2022/10/22 10:51:06;;;;;;;0.70;0.70;;;;;;;;;;5057003;28;20463;-78
2022/10/22 10:53:40;;;;;;;0.70;0.70;;;;;;;;;;5071887;28;20896;-79
2022/10/22 10:56:13;;;;;;;0.70;0.60;;;;;;;;;;5051882;28;20529;-77
2022/10/22 10:58:47;;;;;;;0.70;0.70;;;;;;;;;;5043657;28;20451;-78
2022/10/22 11:01:18;;;;;;;0.70;0.60;;;;;;;;;;5063360;28;20443;-79
2022/10/22 11:03:52;;;;;;;0.70;0.60;;;;;;;;;;5063032;28;20469;-79
2022/10/22 11:06:20;;;;;;;0.70;0.60;;;;;;;;;;5062658;28;20567;-79
2022/10/22 11:08:53;;;;;;;0.70;0.70;;;;;;;;;;5062114;28;20436;-80
2022/10/22 11:11:22;;;;;;;0.70;0.60;;;;;;;;;;5070110;28;20447;-79
2022/10/22 11:13:52;;;;;;;0.70;0.60;;;;;;;;;;5066133;28;20910;-78
2022/10/22 11:16:22;;;;;;;0.70;0.67;;;;;;;;;;5079647;28;21069;-79
2022/10/22 11:19:11;;;;;;;0.70;0.70;;;;;;;;;;5068097;28;20405;-78
2022/10/22 11:21:53;;;;;;;0.70;0.60;;;;;;;;;;5071590;28;20472;-78
2022/10/22 11:24:24;;;;;;;18.53;3.10;;;;;;;;;;5065662;28;20419;-79
2022/10/22 11:26:55;;;;;;;0.70;0.60;;;;;;;;;;5071507;28;20439;-79
2022/10/22 11:29:24;;;;;;;0.70;0.70;;;;;;;;;;5075742;28;20951;-79
2022/10/22 11:31:55;;;;;;;0.70;0.60;;;;;;;;;;5071351;28;20426;-80
2022/10/22 11:34:25;;;;;;;0.70;0.60;;;;;;;;;;5068010;28;20451;-79
2022/10/22 11:37:01;;;;;;;0.70;0.60;;;;;;;;;;5070900;28;20443;-79
2022/10/22 11:39:30;;;;;;;0.70;0.60;;;;;;;;;;5070035;28;20427;-80
2022/10/22 11:41:58;;;;;;;0.70;0.70;;;;;;;;;;5067113;28;20496;-79
2022/10/22 11:44:28;;;;;;;0.70;0.70;;;;;;;;;;5050636;28;20447;-79
2022/10/22 11:46:57;;;;;;;0.70;0.60;;;;;;;;;;5074047;28;20420;-77
2022/10/22 11:49:26;;;;;;;0.70;0.70;;;;;;;;;;5063604;28;20916;-78
2022/10/22 11:52:05;;;;;;;0.70;0.60;;;;;;;;;;5061553;28;20471;-79
2022/10/22 11:54:41;;;;;;;0.70;0.70;;;;;;;;;;5064774;28;20437;-78
2022/10/22 11:57:26;;;;;;;0.70;0.70;;;;;;;;;;5062315;28;20450;-78
2022/10/22 11:59:57;;;;;;;0.70;0.60;;;;;;;;;;5070439;28;20440;-78
2022/10/22 12:02:30;;;;;;;0.70;0.60;;;;;;;;;;5071286;28;20883;-76
2022/10/22 12:05:11;;;;;;;0.70;0.60;;;;;;;;;;5064697;28;20411;-79
2022/10/22 12:07:49;;;;;;;0.70;0.70;;;;;;;;;;5064584;28;20781;-79
2022/10/22 12:10:18;;;;;;;0.70;0.60;;;;;;;;;;5068622;28;20450;-79
2022/10/22 12:12:51;;;;;;;0.70;0.70;;;;;;;;;;5058691;28;20444;-78
2022/10/22 12:15:23;;;;;;;0.70;0.70;;;;;;;;;;5057027;28;20467;-78
2022/10/22 12:17:55;;;;;;;0.70;0.70;;;;;;;;;;5072855;28;20444;-79
2022/10/22 12:20:24;;;;;;;0.70;0.70;;;;;;;;;;5071225;28;20490;-79
2022/10/22 12:22:51;;;;;;;0.70;0.70;;;;;;;;;;5067575;28;20535;-78
2022/10/22 12:25:21;;;;;;;0.70;0.60;;;;;;;;;;5070034;28;20444;-79
2022/10/22 12:27:50;;;;;;;0.70;0.70;;;;;;;;;;5064294;28;20435;-79
2022/10/22 12:30:18;;;;;;;2.70;2.50;;;;;;;;;;5071125;28;20436;-79
2022/10/22 12:32:50;;;;;;;0.70;0.70;;;;;;;;;;5069223;28;20543;-80
2022/10/22 12:35:19;;;;;;;0.70;0.60;;;;;;;;;;5071715;28;21054;-79
2022/10/22 12:37:48;;;;;;;0.70;0.70;;;;;;;;;;5070451;28;20428;-79
2022/10/22 12:40:17;;;;;;;0.70;0.60;;;;;;;;;;5063424;28;20436;-78
2022/10/22 12:42:48;;;;;;;0.70;0.60;;;;;;;;;;5068022;28;20795;-79
2022/10/22 12:45:15;;;;;;;0.70;0.60;;;;;;;;;;5068717;28;20435;-78
2022/10/22 12:47:44;;;;;;;0.70;0.60;;;;;;;;;;5058143;28;20468;-78
2022/10/22 12:50:16;;;;;;;0.80;0.70;;;;;;;;;;5047555;28;20436;-78
2022/10/22 12:52:46;;;;;;;0.70;0.60;;;;;;;;;;5061407;28;20438;-79
2022/10/22 12:55:14;;;;;;;0.80;0.80;;;;;;;;;;5063110;28;20471;-80
2022/10/22 12:57:41;;;;;;;0.70;0.70;;;;;;;;;;5063924;28;20433;-79
2022/10/22 13:00:18;;;;;;;0.70;0.70;;;;;;;;;;5066546;28;20959;-79
2022/10/22 13:02:45;;;;;;;0.70;0.60;;;;;;;;;;5051925;28;20451;-80
2022/10/22 13:05:15;;;;;;;0.70;0.63;;;;;;;;;;5049878;28;20427;-79
2022/10/22 13:07:45;;;;;;;0.70;0.70;;;;;;;;;;5067002;28;20436;-79
2022/10/22 13:10:17;;;;;;;0.70;0.60;;;;;;;;;;5059379;28;20932;-80
2022/10/22 13:12:47;;;;;;;0.70;0.60;;;;;;;;;;5057046;28;20446;-79
2022/10/22 13:15:19;;;;;;;0.70;0.60;;;;;;;;;;5066268;28;20446;-79
2022/10/22 13:17:46;;;;;;;1.07;0.97;;;;;;;;;;5061394;28;20462;-79
2022/10/22 13:20:18;;;;;;;0.70;0.60;;;;;;;;;;5049882;28;20436;-82
2022/10/22 13:22:53;;;;;;;0.70;0.70;;;;;;;;;;5062316;28;20458;-79
2022/10/22 13:25:22;;;;;;;0.70;0.70;;;;;;;;;;5052719;28;20477;-80
2022/10/22 13:27:49;;;;;;;0.70;0.70;;;;;;;;;;5059072;28;20534;-80
2022/10/22 13:30:18;;;;;;;0.70;0.60;;;;;;;;;;5063747;28;20496;-78
2022/10/22 13:32:48;;;;;;;0.70;0.60;;;;;;;;;;5059745;28;20462;-78
2022/10/22 13:35:17;;;;;;;0.80;0.70;;;;;;;;;;5052449;28;20444;-77
2022/10/22 13:37:43;;;;;;;0.70;0.70;;;;;;;;;;5054654;28;20442;-77
2022/10/22 13:40:13;;;;;;;0.80;0.70;;;;;;;;;;5050865;28;20871;-79
2022/10/22 13:42:40;;;;;;;0.70;0.67;;;;;;;;;;5063964;28;20717;-79
2022/10/22 13:45:07;;;;;;;0.70;0.60;;;;;;;;;;5062662;28;20479;-79
2022/10/22 13:47:34;;;;;;;0.70;0.63;;;;;;;;;;5044894;28;20449;-79
2022/10/22 13:50:03;;;;;;;0.70;0.70;;;;;;;;;;5061952;28;20440;-80
2022/10/22 13:52:34;;;;;;;0.80;0.70;;;;;;;;;;5040899;28;20857;-79
2022/10/22 13:55:01;;;;;;;0.70;0.60;;;;;;;;;;5062470;28;20443;-80
2022/10/22 13:57:30;;;;;;;1.00;0.90;;;;;;;;;;5065928;28;20478;-80
2022/10/22 13:59:57;;;;;;;0.70;0.70;;;;;;;;;;5049262;28;20501;-78
2022/10/22 14:02:24;;;;;;;0.70;0.60;;;;;;;;;;5053491;28;20443;-79
2022/10/22 14:04:51;;;;;;;0.70;0.70;;;;;;;;;;5066287;28;20418;-79
2022/10/22 14:07:18;;;;;;;0.70;0.70;;;;;;;;;;5056741;28;20441;-79
2022/10/22 14:09:45;;;;;;;0.70;0.70;;;;;;;;;;5063156;28;20448;-79
2022/10/22 14:12:15;;;;;;;0.70;0.60;;;;;;;;;;5060937;28;20429;-79
2022/10/22 14:14:45;;;;;;;0.70;0.60;;;;;;;;;;5061502;28;20528;-78
2022/10/22 14:17:15;;;;;;;0.70;0.60;;;;;;;;;;5059300;28;20995;-79
2022/10/22 14:19:43;;;;;;;0.80;0.80;;;;;;;;;;5062325;28;20451;-79
2022/10/22 14:22:12;;;;;;;0.70;0.60;;;;;;;;;;5046534;28;20661;-78
2022/10/22 14:24:39;;;;;;;0.70;0.60;;;;;;;;;;5071889;28;20446;-78
2022/10/22 14:27:08;;;;;;;0.70;0.60;;;;;;;;;;5072188;28;20439;-78
2022/10/22 14:29:35;;;;;;;0.70;0.60;;;;;;;;;;5071731;28;20802;-77
2022/10/22 14:32:10;;;;;;;0.70;0.70;;;;;;;;;;5071305;28;20443;-78
2022/10/22 14:34:37;;;;;;;0.80;0.70;;;;;;;;;;5066944;28;21081;-77
2022/10/22 14:37:04;;;;;;;0.70;0.70;;;;;;;;;;5061847;28;20448;-79
2022/10/22 14:39:31;;;;;;;0.70;0.70;;;;;;;;;;5068998;28;20462;-78
2022/10/22 14:41:58;;;;;;;0.70;0.60;;;;;;;;;;5063267;28;20811;-78
2022/10/22 14:44:25;;;;;;;1.67;0.90;;;;;;;;;;5066362;28;20413;-77
2022/10/22 14:46:55;;;;;;;0.70;0.60;;;;;;;;;;5064209;28;20414;-78
2022/10/22 14:49:22;;;;;;;0.80;0.70;;;;;;;;;;5060516;28;20500;-78
2022/10/22 14:51:49;;;;;;;0.80;0.70;;;;;;;;;;5064030;28;20542;-79
2022/10/22 14:54:17;;;;;;;0.70;0.60;;;;;;;;;;5049891;28;20447;-78